sensor_id;sensor_type;location;lat;lon;timestamp;pressure;altitude;pressure_sealevel;temperature;humidity
62976;BME280;49071;0.000;0.000;2022-07-23T06:31:59;101008.28;;;23.58;48.47
62976;BME280;49071;0.000;0.000;2022-07-23T06:34:59;101026.75;;;23.80;48.06
62976;BME280;49071;0.000;0.000;2022-07-23T06:37:59;101029.94;;;23.88;47.92
62976;BME280;49071;0.000;0.000;2022-07-23T06:41:00;101004.84;;;23.90;47.93
62976;BME280;49071;0.000;0.000;2022-07-23T06:44:00;101039.47;;;23.90;48.00
62976;BME280;49071;0.000;0.000;2022-07-23T06:47:00;101046.28;;;23.42;48.70
62976;BME280;49071;0.000;0.000;2022-07-23T06:50:00;101043.16;;;23.20;49.34
62976;BME280;49071;0.000;0.000;2022-07-23T06:53:01;101044.09;;;23.32;49.24
62976;BME280;49071;0.000;0.000;2022-07-23T06:56:01;101061.84;;;23.38;49.29
62976;BME280;49071;0.000;0.000;2022-07-23T06:59:01;101060.13;;;23.26;49.45
62976;BME280;49071;0.000;0.000;2022-07-23T07:02:02;101060.19;;;23.31;49.20
62976;BME280;49071;0.000;0.000;2022-07-23T07:05:02;101061.06;;;23.37;49.24
62976;BME280;49071;0.000;0.000;2022-07-23T07:08:02;101068.06;;;23.42;49.23
62976;BME280;49071;0.000;0.000;2022-07-23T07:11:03;101051.00;;;23.72;48.16
62976;BME280;49071;0.000;0.000;2022-07-23T07:14:03;101068.88;;;23.83;48.16
62976;BME280;49071;0.000;0.000;2022-07-23T07:17:04;101047.41;;;23.92;48.06
62976;BME280;49071;0.000;0.000;2022-07-23T07:20:05;101057.97;;;23.97;47.89
62976;BME280;49071;0.000;0.000;2022-07-23T07:23:05;101087.28;;;23.99;47.67
62976;BME280;49071;0.000;0.000;2022-07-23T07:26:05;101094.75;;;24.02;47.60
62976;BME280;49071;0.000;0.000;2022-07-23T07:29:06;101080.13;;;24.04;47.42
62976;BME280;49071;0.000;0.000;2022-07-23T07:32:06;101071.66;;;24.04;47.47
62976;BME280;49071;0.000;0.000;2022-07-23T07:35:06;101084.78;;;24.07;47.57
62976;BME280;49071;0.000;0.000;2022-07-23T07:38:07;101131.47;;;24.08;47.64
62976;BME280;49071;0.000;0.000;2022-07-23T07:41:07;101172.03;;;24.11;47.51
62976;BME280;49071;0.000;0.000;2022-07-23T07:44:09;101122.53;;;24.10;47.31
62976;BME280;49071;0.000;0.000;2022-07-23T07:47:10;101099.44;;;24.11;47.61
62976;BME280;49071;0.000;0.000;2022-07-23T07:50:10;101053.53;;;24.11;47.48
62976;BME280;49071;0.000;0.000;2022-07-23T07:53:10;101007.88;;;24.12;47.13
62976;BME280;49071;0.000;0.000;2022-07-23T07:56:11;101023.53;;;24.13;47.50
62976;BME280;49071;0.000;0.000;2022-07-23T07:59:11;101034.59;;;24.17;47.03
62976;BME280;49071;0.000;0.000;2022-07-23T08:02:11;101055.69;;;24.21;47.27
62976;BME280;49071;0.000;0.000;2022-07-23T08:05:11;101038.25;;;24.23;47.08
62976;BME280;49071;0.000;0.000;2022-07-23T08:08:12;101040.09;;;24.26;46.97
62976;BME280;49071;0.000;0.000;2022-07-23T08:11:14;101029.84;;;24.28;46.82
62976;BME280;49071;0.000;0.000;2022-07-23T08:14:14;101016.28;;;24.33;47.15
62976;BME280;49071;0.000;0.000;2022-07-23T08:17:15;100987.56;;;24.34;46.87
62976;BME280;49071;0.000;0.000;2022-07-23T08:20:16;100987.84;;;24.36;46.87
62976;BME280;49071;0.000;0.000;2022-07-23T08:23:17;100998.59;;;24.38;46.78
62976;BME280;49071;0.000;0.000;2022-07-23T08:26:19;101000.94;;;24.39;46.98
62976;BME280;49071;0.000;0.000;2022-07-23T08:29:19;100998.13;;;24.39;46.79
62976;BME280;49071;0.000;0.000;2022-07-23T08:32:19;100993.25;;;24.40;47.09
62976;BME280;49071;0.000;0.000;2022-07-23T08:35:27;100990.41;;;24.40;46.88
62976;BME280;49071;0.000;0.000;2022-07-23T08:38:28;100995.56;;;24.41;47.14
62976;BME280;49071;0.000;0.000;2022-07-23T08:41:28;100998.41;;;24.41;46.82
62976;BME280;49071;0.000;0.000;2022-07-23T08:44:29;100996.34;;;24.42;47.04
62976;BME280;49071;0.000;0.000;2022-07-23T08:47:29;100989.94;;;24.41;46.74
62976;BME280;49071;0.000;0.000;2022-07-23T08:50:31;101007.63;;;24.42;46.72
62976;BME280;49071;0.000;0.000;2022-07-23T08:53:33;100998.66;;;24.43;47.09
62976;BME280;49071;0.000;0.000;2022-07-23T08:56:35;101005.09;;;24.44;46.71
62976;BME280;49071;0.000;0.000;2022-07-23T08:59:36;101005.56;;;24.42;46.84
62976;BME280;49071;0.000;0.000;2022-07-23T09:02:39;101005.56;;;24.42;46.93
62976;BME280;49071;0.000;0.000;2022-07-23T09:05:40;101000.72;;;24.43;47.03
62976;BME280;49071;0.000;0.000;2022-07-23T09:08:41;101002.25;;;24.44;46.63
62976;BME280;49071;0.000;0.000;2022-07-23T09:11:45;101006.94;;;24.47;47.01
62976;BME280;49071;0.000;0.000;2022-07-23T09:14:45;101015.00;;;24.34;47.92
62976;BME280;49071;0.000;0.000;2022-07-23T09:17:48;101020.97;;;24.15;48.99
62976;BME280;49071;0.000;0.000;2022-07-23T09:20:49;101020.94;;;24.10;49.28
62976;BME280;49071;0.000;0.000;2022-07-23T09:23:59;101034.53;;;24.11;49.52
62976;BME280;49071;0.000;0.000;2022-07-23T09:27:03;101031.09;;;24.01;49.71
62976;BME280;49071;0.000;0.000;2022-07-23T09:30:04;101027.50;;;24.01;50.22
62976;BME280;49071;0.000;0.000;2022-07-23T09:36:05;101028.34;;;24.07;50.23
62976;BME280;49071;0.000;0.000;2022-07-23T09:39:06;101039.03;;;23.97;50.28
62976;BME280;49071;0.000;0.000;2022-07-23T09:45:16;101037.44;;;24.17;49.86
62976;BME280;49071;0.000;0.000;2022-07-23T09:48:16;101040.25;;;24.17;49.93
62976;BME280;49071;0.000;0.000;2022-07-23T09:51:17;101046.38;;;24.15;49.64
62976;BME280;49071;0.000;0.000;2022-07-23T09:54:40;101038.75;;;24.21;49.53
62976;BME280;49071;0.000;0.000;2022-07-23T09:57:41;101050.06;;;24.21;49.75
62976;BME280;49071;0.000;0.000;2022-07-23T10:00:42;101050.31;;;24.23;49.31
62976;BME280;49071;0.000;0.000;2022-07-23T10:03:45;101067.75;;;24.22;49.21
62976;BME280;49071;0.000;0.000;2022-07-23T10:06:46;101059.78;;;24.20;49.66
62976;BME280;49071;0.000;0.000;2022-07-23T10:09:47;101056.66;;;24.18;49.36
62976;BME280;49071;0.000;0.000;2022-07-23T10:12:48;101061.34;;;24.21;49.37
62976;BME280;49071;0.000;0.000;2022-07-23T10:15:52;101056.97;;;24.20;49.32
62976;BME280;49071;0.000;0.000;2022-07-23T10:18:54;101069.97;;;24.12;49.52
62976;BME280;49071;0.000;0.000;2022-07-23T10:21:56;101073.13;;;24.20;49.30
62976;BME280;49071;0.000;0.000;2022-07-23T10:25:08;101079.81;;;24.22;49.12
62976;BME280;49071;0.000;0.000;2022-07-23T10:40:28;101072.88;;;24.23;49.12
62976;BME280;49071;0.000;0.000;2022-07-23T10:43:30;101079.34;;;24.24;48.87
62976;BME280;49071;0.000;0.000;2022-07-23T10:46:31;101074.94;;;24.23;48.99
62976;BME280;49071;0.000;0.000;2022-07-23T10:49:55;101065.75;;;24.28;48.81
62976;BME280;49071;0.000;0.000;2022-07-23T10:53:15;101073.16;;;24.25;48.71
62976;BME280;49071;0.000;0.000;2022-07-23T10:56:17;101076.78;;;24.26;48.71
62976;BME280;49071;0.000;0.000;2022-07-23T11:02:57;101085.50;;;24.28;48.41
62976;BME280;49071;0.000;0.000;2022-07-23T11:05:58;101086.31;;;24.28;48.39
62976;BME280;49071;0.000;0.000;2022-07-23T11:15:21;101095.53;;;24.29;48.39
62976;BME280;49071;0.000;0.000;2022-07-23T11:18:46;101085.78;;;24.30;48.07
62976;BME280;49071;0.000;0.000;2022-07-23T11:21:41;101095.75;;;24.25;48.32
62976;BME280;49071;0.000;0.000;2022-07-23T11:24:50;101098.56;;;24.25;48.53
62976;BME280;49071;0.000;0.000;2022-07-23T11:27:51;101096.81;;;24.28;48.47
62976;BME280;49071;0.000;0.000;2022-07-23T11:30:51;101094.50;;;24.26;48.42
62976;BME280;49071;0.000;0.000;2022-07-23T11:34:23;101099.13;;;24.30;48.21
62976;BME280;49071;0.000;0.000;2022-07-23T11:37:12;101097.31;;;24.26;48.34
62976;BME280;49071;0.000;0.000;2022-07-23T11:40:26;101097.03;;;24.24;48.13
62976;BME280;49071;0.000;0.000;2022-07-23T11:43:26;101096.81;;;24.28;47.89
62976;BME280;49071;0.000;0.000;2022-07-23T11:46:27;101100.34;;;24.23;48.00
62976;BME280;49071;0.000;0.000;2022-07-23T11:49:27;101096.75;;;24.22;48.09
62976;BME280;49071;0.000;0.000;2022-07-23T11:52:28;101098.81;;;24.22;48.11
62976;BME280;49071;0.000;0.000;2022-07-23T11:55:29;101097.81;;;24.25;47.92
62976;BME280;49071;0.000;0.000;2022-07-23T11:58:29;101100.41;;;24.28;48.01
62976;BME280;49071;0.000;0.000;2022-07-23T12:01:29;101101.91;;;24.24;48.00
62976;BME280;49071;0.000;0.000;2022-07-23T12:04:42;101097.25;;;24.21;47.94
62976;BME280;49071;0.000;0.000;2022-07-23T12:07:44;101095.47;;;24.23;47.82
62976;BME280;49071;0.000;0.000;2022-07-23T12:10:50;101099.38;;;24.26;47.77
62976;BME280;49071;0.000;0.000;2022-07-23T12:13:57;101096.97;;;24.19;47.66
62976;BME280;49071;0.000;0.000;2022-07-23T12:17:09;101090.81;;;24.20;47.87
62976;BME280;49071;0.000;0.000;2022-07-23T12:20:12;101092.66;;;24.23;47.80
62976;BME280;49071;0.000;0.000;2022-07-23T12:23:14;101093.09;;;24.16;47.86
62976;BME280;49071;0.000;0.000;2022-07-23T12:26:14;101094.69;;;24.23;47.52
62976;BME280;49071;0.000;0.000;2022-07-23T12:29:14;101086.50;;;24.25;47.76
62976;BME280;49071;0.000;0.000;2022-07-23T12:32:19;101091.97;;;24.28;47.60
62976;BME280;49071;0.000;0.000;2022-07-23T12:35:20;101086.31;;;24.28;47.85
62976;BME280;49071;0.000;0.000;2022-07-23T12:38:21;101095.75;;;24.25;47.67
62976;BME280;49071;0.000;0.000;2022-07-23T12:41:22;101095.47;;;24.23;47.92
62976;BME280;49071;0.000;0.000;2022-07-23T12:44:22;101096.75;;;24.22;48.12
62976;BME280;49071;0.000;0.000;2022-07-23T12:47:23;101094.50;;;24.26;47.91
62976;BME280;49071;0.000;0.000;2022-07-23T12:53:53;101097.03;;;24.24;48.12
62976;BME280;49071;0.000;0.000;2022-07-23T12:56:54;101098.56;;;24.25;47.72
62976;BME280;49071;0.000;0.000;2022-07-23T13:00:06;101105.06;;;24.32;47.82
62976;BME280;49071;0.000;0.000;2022-07-23T13:03:19;101107.00;;;24.20;48.23
62976;BME280;49071;0.000;0.000;2022-07-23T13:06:19;101110.88;;;24.22;48.17
62976;BME280;49071;0.000;0.000;2022-07-23T13:09:27;101094.94;;;24.19;48.14
62976;BME280;49071;0.000;0.000;2022-07-23T13:12:27;101098.28;;;24.23;48.16
62976;BME280;49071;0.000;0.000;2022-07-23T13:15:28;101096.81;;;24.28;47.64
62976;BME280;49071;0.000;0.000;2022-07-23T13:18:28;101099.91;;;24.30;47.98
62976;BME280;49071;0.000;0.000;2022-07-23T13:21:29;101096.59;;;24.32;47.71
62976;BME280;49071;0.000;0.000;2022-07-23T13:24:29;101085.31;;;24.32;47.72
62976;BME280;49071;0.000;0.000;2022-07-23T13:27:29;101088.13;;;24.32;47.36
62976;BME280;49071;0.000;0.000;2022-07-23T13:30:30;101088.63;;;24.30;47.41
62976;BME280;49071;0.000;0.000;2022-07-23T13:33:30;101082.25;;;24.35;47.22
62976;BME280;49071;0.000;0.000;2022-07-23T13:36:30;101088.94;;;24.38;47.46
62976;BME280;49071;0.000;0.000;2022-07-23T13:39:31;101076.41;;;24.39;47.30
62976;BME280;49071;0.000;0.000;2022-07-23T13:42:31;101079.22;;;24.39;47.54
62976;BME280;49071;0.000;0.000;2022-07-23T13:45:31;101083.88;;;24.42;47.49
62976;BME280;49071;0.000;0.000;2022-07-23T13:48:31;101081.53;;;24.40;47.44
62976;BME280;49071;0.000;0.000;2022-07-23T13:51:32;101077.16;;;24.39;47.45
62976;BME280;49071;0.000;0.000;2022-07-23T13:54:32;101079.50;;;24.41;47.37
62976;BME280;49071;0.000;0.000;2022-07-23T13:57:33;101075.97;;;24.46;47.33
62976;BME280;49071;0.000;0.000;2022-07-23T14:00:34;101071.88;;;24.47;46.92
62976;BME280;49071;0.000;0.000;2022-07-23T14:03:35;101071.66;;;24.51;46.93
62976;BME280;49071;0.000;0.000;2022-07-23T14:06:35;101071.16;;;24.52;47.00
62976;BME280;49071;0.000;0.000;2022-07-23T14:09:36;101060.13;;;24.54;47.02
62976;BME280;49071;0.000;0.000;2022-07-23T14:12:36;101056.53;;;24.54;46.90
62976;BME280;49071;0.000;0.000;2022-07-23T14:15:36;101056.06;;;24.55;47.02
62976;BME280;49071;0.000;0.000;2022-07-23T14:18:40;101059.91;;;24.58;47.11
62976;BME280;49071;0.000;0.000;2022-07-23T14:21:40;101061.47;;;24.59;47.02
62976;BME280;49071;0.000;0.000;2022-07-23T14:24:40;101051.72;;;24.60;47.37
62976;BME280;49071;0.000;0.000;2022-07-23T14:27:41;101049.69;;;24.60;47.02
62976;BME280;49071;0.000;0.000;2022-07-23T14:30:41;101048.63;;;24.58;47.30
62976;BME280;49071;0.000;0.000;2022-07-23T14:33:43;101049.44;;;24.64;47.09
62976;BME280;49071;0.000;0.000;2022-07-23T14:36:43;101049.44;;;24.64;46.85
62976;BME280;49071;0.000;0.000;2022-07-23T14:39:44;101043.03;;;24.63;46.83
62976;BME280;49071;0.000;0.000;2022-07-23T14:42:44;101046.13;;;24.65;46.95
62976;BME280;49071;0.000;0.000;2022-07-23T14:45:45;101040.47;;;24.65;46.81
62976;BME280;49071;0.000;0.000;2022-07-23T14:48:45;101036.34;;;24.66;46.98
62976;BME280;49071;0.000;0.000;2022-07-23T14:51:45;101031.00;;;24.68;47.08
62976;BME280;49071;0.000;0.000;2022-07-23T14:54:45;101039.75;;;24.70;47.09
62976;BME280;49071;0.000;0.000;2022-07-23T14:57:47;101028.94;;;24.69;46.89
62976;BME280;49071;0.000;0.000;2022-07-23T15:00:47;101035.38;;;24.69;46.91
62976;BME280;49071;0.000;0.000;2022-07-23T15:03:48;101035.63;;;24.72;47.14
62976;BME280;49071;0.000;0.000;2022-07-23T15:06:48;101036.66;;;24.74;47.05
62976;BME280;49071;0.000;0.000;2022-07-23T15:09:48;101034.38;;;24.73;46.93
62976;BME280;49071;0.000;0.000;2022-07-23T15:12:49;101033.06;;;24.74;47.00
62976;BME280;49071;0.000;0.000;2022-07-23T15:15:49;101035.41;;;24.75;46.83
62976;BME280;49071;0.000;0.000;2022-07-23T15:18:49;101031.28;;;24.76;47.02
62976;BME280;49071;0.000;0.000;2022-07-23T15:21:50;101032.09;;;24.77;46.82
62976;BME280;49071;0.000;0.000;2022-07-23T15:24:51;101025.88;;;24.73;46.95
62976;BME280;49071;0.000;0.000;2022-07-23T15:27:51;101034.38;;;24.73;47.08
62976;BME280;49071;0.000;0.000;2022-07-23T15:30:52;101037.97;;;24.73;46.97
62976;BME280;49071;0.000;0.000;2022-07-23T15:33:52;101027.16;;;24.72;47.29
62976;BME280;49071;0.000;0.000;2022-07-23T15:36:52;101034.38;;;24.73;46.99
62976;BME280;49071;0.000;0.000;2022-07-23T15:39:53;101020.53;;;24.75;46.61
62976;BME280;49071;0.000;0.000;2022-07-23T15:42:53;101025.38;;;24.74;46.78
62976;BME280;49071;0.000;0.000;2022-07-23T15:45:53;101024.09;;;24.75;46.78
62976;BME280;49071;0.000;0.000;2022-07-23T15:48:54;101024.59;;;24.74;46.85
62976;BME280;49071;0.000;0.000;2022-07-23T15:51:54;101034.38;;;24.73;46.70
62976;BME280;49071;0.000;0.000;2022-07-23T15:54:55;101035.91;;;24.74;46.55
62976;BME280;49071;0.000;0.000;2022-07-23T15:57:55;101034.66;;;24.75;46.73
62976;BME280;49071;0.000;0.000;2022-07-23T16:00:55;101030.25;;;24.74;46.00
62976;BME280;49071;0.000;0.000;2022-07-23T16:03:56;101025.38;;;24.74;45.97
62976;BME280;49071;0.000;0.000;2022-07-23T16:06:58;101032.59;;;24.75;45.71
62976;BME280;49071;0.000;0.000;2022-07-23T16:09:59;101023.34;;;24.75;45.84
62976;BME280;49071;0.000;0.000;2022-07-23T16:12:59;101024.88;;;24.76;45.84
62976;BME280;49071;0.000;0.000;2022-07-23T16:16:00;101020.78;;;24.77;45.50
62976;BME280;49071;0.000;0.000;2022-07-23T16:19:00;101027.72;;;24.76;45.59
62976;BME280;49071;0.000;0.000;2022-07-23T16:22:00;101026.16;;;24.75;45.33
62976;BME280;49071;0.000;0.000;2022-07-23T16:25:02;101020.53;;;24.75;45.30
62976;BME280;49071;0.000;0.000;2022-07-23T16:28:02;101019.22;;;24.76;45.58
62976;BME280;49071;0.000;0.000;2022-07-23T16:31:02;101023.09;;;24.78;45.32
62976;BME280;49071;0.000;0.000;2022-07-23T16:34:02;101020.00;;;24.76;45.10
62976;BME280;49071;0.000;0.000;2022-07-23T16:37:03;101020.78;;;24.77;45.06
62976;BME280;49071;0.000;0.000;2022-07-23T16:40:04;101027.22;;;24.77;45.12
62976;BME280;49071;0.000;0.000;2022-07-23T16:43:04;101025.16;;;24.78;44.77
62976;BME280;49071;0.000;0.000;2022-07-23T16:46:05;101028.75;;;24.78;44.87
62976;BME280;49071;0.000;0.000;2022-07-23T16:49:07;101023.09;;;24.78;45.21
62976;BME280;49071;0.000;0.000;2022-07-23T16:52:07;101020.28;;;24.78;45.19
62976;BME280;49071;0.000;0.000;2022-07-23T16:55:07;101023.88;;;24.79;44.87
62976;BME280;49071;0.000;0.000;2022-07-23T16:58:08;101033.91;;;24.80;44.46
62976;BME280;49071;0.000;0.000;2022-07-23T17:01:08;101031.34;;;24.82;44.79
62976;BME280;49071;0.000;0.000;2022-07-23T17:04:08;101037.22;;;24.78;44.94
62976;BME280;49071;0.000;0.000;2022-07-23T17:07:08;101033.34;;;24.76;44.25
62976;BME280;49071;0.000;0.000;2022-07-23T17:10:09;101034.91;;;24.77;44.14
62976;BME280;49071;0.000;0.000;2022-07-23T17:13:10;101037.75;;;24.77;44.19
62976;BME280;49071;0.000;0.000;2022-07-23T17:16:10;101036.47;;;24.78;44.20
62976;BME280;49071;0.000;0.000;2022-07-23T17:19:11;101034.41;;;24.78;44.45
62976;BME280;49071;0.000;0.000;2022-07-23T17:22:11;101039.03;;;24.81;44.74
62976;BME280;49071;0.000;0.000;2022-07-23T17:25:11;101039.84;;;24.82;44.79
62976;BME280;49071;0.000;0.000;2022-07-23T17:28:15;101039.84;;;24.82;44.75
62976;BME280;49071;0.000;0.000;2022-07-23T17:31:15;101035.16;;;24.79;45.06
62976;BME280;49071;0.000;0.000;2022-07-23T17:34:15;101042.88;;;24.78;44.51
62976;BME280;49071;0.000;0.000;2022-07-23T17:37:16;101036.19;;;24.76;44.29
62976;BME280;49071;0.000;0.000;2022-07-23T17:40:16;101040.56;;;24.77;44.63
62976;BME280;49071;0.000;0.000;2022-07-23T17:43:16;101042.31;;;24.74;44.48
62976;BME280;49071;0.000;0.000;2022-07-23T17:46:17;101037.16;;;24.67;44.40
62976;BME280;49071;0.000;0.000;2022-07-23T17:49:17;101034.34;;;24.67;43.96
62976;BME280;49071;0.000;0.000;2022-07-23T17:52:17;101040.19;;;24.63;43.89
62976;BME280;49071;0.000;0.000;2022-07-23T17:55:18;101047.13;;;24.62;43.67
62976;BME280;49071;0.000;0.000;2022-07-23T17:58:18;101039.47;;;24.68;44.27
62976;BME280;49071;0.000;0.000;2022-07-23T18:01:18;101045.09;;;24.68;44.17
62976;BME280;49071;0.000;0.000;2022-07-23T18:04:19;101053.09;;;24.70;43.83
62976;BME280;49071;0.000;0.000;2022-07-23T18:07:20;101051.50;;;24.63;43.29
62976;BME280;49071;0.000;0.000;2022-07-23T18:10:20;101054.81;;;24.62;43.38
62976;BME280;49071;0.000;0.000;2022-07-23T18:13:21;101055.63;;;24.68;44.62
62976;BME280;49071;0.000;0.000;2022-07-23T18:16:21;101057.13;;;24.63;43.35
62976;BME280;49071;0.000;0.000;2022-07-23T18:19:22;101053.75;;;24.59;43.51
62976;BME280;49071;0.000;0.000;2022-07-23T18:22:22;101057.31;;;24.54;42.91
62976;BME280;49071;0.000;0.000;2022-07-23T18:25:22;101066.81;;;24.57;44.70
62976;BME280;49071;0.000;0.000;2022-07-23T18:28:22;101066.06;;;24.56;43.13
62976;BME280;49071;0.000;0.000;2022-07-23T18:31:23;101067.59;;;24.57;44.48
62976;BME280;49071;0.000;0.000;2022-07-23T18:34:23;101078.38;;;24.53;43.03
62976;BME280;49071;0.000;0.000;2022-07-23T18:37:24;101074.25;;;24.54;43.09
62976;BME280;49071;0.000;0.000;2022-07-23T18:40:25;101079.97;;;24.60;44.36
62976;BME280;49071;0.000;0.000;2022-07-23T18:43:26;101075.25;;;24.51;42.83
62976;BME280;49071;0.000;0.000;2022-07-23T18:46:26;101084.78;;;24.54;42.78
62976;BME280;49071;0.000;0.000;2022-07-23T18:49:26;101081.91;;;24.48;42.66
62976;BME280;49071;0.000;0.000;2022-07-23T18:52:26;101093.22;;;24.48;43.79
62976;BME280;49071;0.000;0.000;2022-07-23T18:55:27;101102.16;;;24.46;42.82
62976;BME280;49071;0.000;0.000;2022-07-23T18:58:27;101099.78;;;24.45;42.42
62976;BME280;49071;0.000;0.000;2022-07-23T19:01:28;101105.84;;;24.53;43.71
62976;BME280;49071;0.000;0.000;2022-07-23T19:04:30;101103.97;;;24.49;44.31
62976;BME280;49071;0.000;0.000;2022-07-23T19:07:30;101108.88;;;24.49;42.44
62976;BME280;49071;0.000;0.000;2022-07-23T19:10:30;101114.34;;;24.38;42.65
62976;BME280;49071;0.000;0.000;2022-07-23T19:13:31;101114.34;;;24.38;42.06
62976;BME280;49071;0.000;0.000;2022-07-23T19:16:31;101116.22;;;24.41;41.96
62976;BME280;49071;0.000;0.000;2022-07-23T19:19:31;101126.56;;;24.49;43.84
62976;BME280;49071;0.000;0.000;2022-07-23T19:22:32;101129.63;;;24.46;43.43
62976;BME280;49071;0.000;0.000;2022-07-23T19:25:32;101128.34;;;24.47;42.94
62976;BME280;49071;0.000;0.000;2022-07-23T19:28:32;101137.09;;;24.49;43.05
62976;BME280;49071;0.000;0.000;2022-07-23T19:31:32;101134.13;;;24.38;41.81
62976;BME280;49071;0.000;0.000;2022-07-23T19:34:33;101144.09;;;24.33;41.31
62976;BME280;49071;0.000;0.000;2022-07-23T19:37:34;101146.41;;;24.35;42.38
62976;BME280;49071;0.000;0.000;2022-07-23T19:40:35;101139.66;;;24.26;41.44
62976;BME280;49071;0.000;0.000;2022-07-23T19:43:35;101150.94;;;24.26;42.04
62976;BME280;49071;0.000;0.000;2022-07-23T19:46:35;101158.38;;;24.24;41.19
62976;BME280;49071;0.000;0.000;2022-07-23T19:49:35;101159.00;;;24.13;40.69
62976;BME280;49071;0.000;0.000;2022-07-23T19:52:36;101165.78;;;24.21;42.12
62976;BME280;49071;0.000;0.000;2022-07-23T19:55:36;101172.38;;;24.39;41.18
62976;BME280;49071;0.000;0.000;2022-07-23T19:58:36;101178.09;;;24.44;41.64
62976;BME280;49071;0.000;0.000;2022-07-23T20:01:36;101177.59;;;24.25;41.81
62976;BME280;49071;0.000;0.000;2022-07-23T20:04:37;101184.69;;;24.15;41.03
62976;BME280;49071;0.000;0.000;2022-07-23T20:07:38;101191.88;;;23.96;40.59
62976;BME280;49071;0.000;0.000;2022-07-23T20:10:38;101184.09;;;23.91;40.33
62976;BME280;49071;0.000;0.000;2022-07-23T20:13:39;101197.09;;;23.82;40.05
62976;BME280;49071;0.000;0.000;2022-07-23T20:16:40;101193.69;;;23.78;40.70
62976;BME280;49071;0.000;0.000;2022-07-23T20:19:40;101194.53;;;23.84;40.31
62976;BME280;49071;0.000;0.000;2022-07-23T20:22:41;101200.44;;;23.87;40.15
62976;BME280;49071;0.000;0.000;2022-07-23T20:25:41;101197.97;;;23.74;40.66
62976;BME280;49071;0.000;0.000;2022-07-23T20:28:41;101201.03;;;23.91;39.76
62976;BME280;49071;0.000;0.000;2022-07-23T20:31:41;101209.56;;;23.96;39.67
62976;BME280;49071;0.000;0.000;2022-07-23T20:34:42;101215.44;;;23.93;40.51
62976;BME280;49071;0.000;0.000;2022-07-23T20:37:42;101227.56;;;23.99;40.01
62976;BME280;49071;0.000;0.000;2022-07-23T20:40:42;101226.41;;;23.91;39.74
62976;BME280;49071;0.000;0.000;2022-07-23T20:43:43;101231.69;;;23.83;40.40
62976;BME280;49071;0.000;0.000;2022-07-23T20:46:43;101230.06;;;23.76;40.03
62976;BME280;49071;0.000;0.000;2022-07-23T20:49:43;101234.88;;;23.91;39.95
62976;BME280;49071;0.000;0.000;2022-07-23T20:52:44;101234.81;;;23.85;41.18
62976;BME280;49071;0.000;0.000;2022-07-23T20:55:44;101233.34;;;23.90;39.92
62976;BME280;49071;0.000;0.000;2022-07-23T20:58:45;101245.09;;;23.88;39.62
62976;BME280;49071;0.000;0.000;2022-07-23T21:01:45;101252.50;;;23.85;40.19
62976;BME280;49071;0.000;0.000;2022-07-23T21:04:46;101253.28;;;23.86;40.16
62976;BME280;49071;0.000;0.000;2022-07-23T21:07:47;101251.34;;;23.92;39.67
62976;BME280;49071;0.000;0.000;2022-07-23T21:10:48;101254.06;;;23.87;39.48
62976;BME280;49071;0.000;0.000;2022-07-23T21:13:48;101254.75;;;23.81;40.00
62976;BME280;49071;0.000;0.000;2022-07-23T21:16:48;101255.44;;;23.76;41.22
62976;BME280;49071;0.000;0.000;2022-07-23T21:19:48;101257.66;;;23.87;39.86
62976;BME280;49071;0.000;0.000;2022-07-23T21:22:49;101256.97;;;23.77;40.24
62976;BME280;49071;0.000;0.000;2022-07-23T21:25:49;101261.09;;;23.76;40.37
62976;BME280;49071;0.000;0.000;2022-07-23T21:28:50;101260.94;;;24.00;40.24
62976;BME280;49071;0.000;0.000;2022-07-23T21:31:51;101265.09;;;24.05;40.26
